sensor_id;sensor_type;location;lat;lon;timestamp;temperature;humidity
9941;DHT22;5009;50.656;7.188;2024-03-23T05:01:06;7.80;99.90
9941;DHT22;5009;50.656;7.188;2024-03-23T05:03:32;7.80;99.90
9941;DHT22;5009;50.656;7.188;2024-03-23T05:05:57;7.70;99.90
9941;DHT22;5009;50.656;7.188;2024-03-23T05:08:23;7.70;99.90
9941;DHT22;5009;50.656;7.188;2024-03-23T05:10:49;7.70;99.90
9941;DHT22;5009;50.656;7.188;2024-03-23T05:13:14;7.80;99.90
9941;DHT22;5009;50.656;7.188;2024-03-23T05:15:40;7.80;99.90
9941;DHT22;5009;50.656;7.188;2024-03-23T05:18:07;7.70;99.90
9941;DHT22;5009;50.656;7.188;2024-03-23T05:20:33;7.70;99.90
9941;DHT22;5009;50.656;7.188;2024-03-23T05:22:58;7.70;99.90
9941;DHT22;5009;50.656;7.188;2024-03-23T05:25:24;7.70;99.90
9941;DHT22;5009;50.656;7.188;2024-03-23T05:27:49;7.70;99.90
9941;DHT22;5009;50.656;7.188;2024-03-23T05:30:15;7.70;99.90
9941;DHT22;5009;50.656;7.188;2024-03-23T05:32:40;7.70;99.90
9941;DHT22;5009;50.656;7.188;2024-03-23T05:35:07;7.70;99.90
9941;DHT22;5009;50.656;7.188;2024-03-23T05:37:33;7.70;99.90
9941;DHT22;5009;50.656;7.188;2024-03-23T05:40:02;7.60;99.90
9941;DHT22;5009;50.656;7.188;2024-03-23T05:42:29;7.70;99.90
9941;DHT22;5009;50.656;7.188;2024-03-23T05:44:54;7.60;99.90
9941;DHT22;5009;50.656;7.188;2024-03-23T05:47:20;7.60;99.90
9941;DHT22;5009;50.656;7.188;2024-03-23T05:49:46;7.60;99.90
9941;DHT22;5009;50.656;7.188;2024-03-23T05:52:12;7.70;99.90
9941;DHT22;5009;50.656;7.188;2024-03-23T05:54:38;7.70;99.90
9941;DHT22;5009;50.656;7.188;2024-03-23T05:57:04;7.60;99.90
9941;DHT22;5009;50.656;7.188;2024-03-23T05:59:29;7.70;99.90
9941;DHT22;5009;50.656;7.188;2024-03-23T06:01:56;7.60;99.90
9941;DHT22;5009;50.656;7.188;2024-03-23T06:04:21;7.60;99.90
9941;DHT22;5009;50.656;7.188;2024-03-23T06:06:48;7.70;99.90
9941;DHT22;5009;50.656;7.188;2024-03-23T06:09:13;7.70;99.90
9941;DHT22;5009;50.656;7.188;2024-03-23T06:11:39;7.70;99.90
9941;DHT22;5009;50.656;7.188;2024-03-23T06:14:05;7.70;99.90
9941;DHT22;5009;50.656;7.188;2024-03-23T06:16:31;7.70;99.90
9941;DHT22;5009;50.656;7.188;2024-03-23T06:18:56;7.80;99.90
9941;DHT22;5009;50.656;7.188;2024-03-23T06:21:22;7.70;99.90
9941;DHT22;5009;50.656;7.188;2024-03-23T06:23:52;7.80;99.90
9941;DHT22;5009;50.656;7.188;2024-03-23T06:26:18;7.80;99.90
9941;DHT22;5009;50.656;7.188;2024-03-23T06:28:44;7.70;99.90
9941;DHT22;5009;50.656;7.188;2024-03-23T06:31:10;7.80;99.90
9941;DHT22;5009;50.656;7.188;2024-03-23T06:33:36;7.80;99.90
9941;DHT22;5009;50.656;7.188;2024-03-23T06:36:01;7.80;99.90
9941;DHT22;5009;50.656;7.188;2024-03-23T06:38:28;7.80;99.90
9941;DHT22;5009;50.656;7.188;2024-03-23T06:40:54;7.80;99.90
9941;DHT22;5009;50.656;7.188;2024-03-23T06:43:19;7.80;99.90
9941;DHT22;5009;50.656;7.188;2024-03-23T06:45:55;7.90;99.90
9941;DHT22;5009;50.656;7.188;2024-03-23T06:48:20;7.80;99.90
9941;DHT22;5009;50.656;7.188;2024-03-23T06:50:47;7.90;99.90
9941;DHT22;5009;50.656;7.188;2024-03-23T06:53:13;8.10;99.90
9941;DHT22;5009;50.656;7.188;2024-03-23T06:55:39;8.10;99.90
9941;DHT22;5009;50.656;7.188;2024-03-23T06:58:05;8.20;99.90
9941;DHT22;5009;50.656;7.188;2024-03-23T07:00:31;8.40;99.90
9941;DHT22;5009;50.656;7.188;2024-03-23T07:02:57;8.50;99.90
9941;DHT22;5009;50.656;7.188;2024-03-23T07:05:23;8.80;99.90
9941;DHT22;5009;50.656;7.188;2024-03-23T07:07:48;9.40;99.90
9941;DHT22;5009;50.656;7.188;2024-03-23T07:10:14;10.00;99.90
9941;DHT22;5009;50.656;7.188;2024-03-23T07:12:40;10.30;99.80
9941;DHT22;5009;50.656;7.188;2024-03-23T07:15:06;10.40;99.00
9941;DHT22;5009;50.656;7.188;2024-03-23T07:17:31;11.00;98.40
9941;DHT22;5009;50.656;7.188;2024-03-23T07:19:58;11.80;96.50
9941;DHT22;5009;50.656;7.188;2024-03-23T07:22:23;12.40;94.80
9941;DHT22;5009;50.656;7.188;2024-03-23T07:24:49;13.10;93.50
9941;DHT22;5009;50.656;7.188;2024-03-23T07:27:15;13.40;92.60
9941;DHT22;5009;50.656;7.188;2024-03-23T07:29:40;13.40;91.90
9941;DHT22;5009;50.656;7.188;2024-03-23T07:32:06;13.00;92.00
9941;DHT22;5009;50.656;7.188;2024-03-23T07:34:31;12.80;92.40
9941;DHT22;5009;50.656;7.188;2024-03-23T07:36:57;12.70;92.40
9941;DHT22;5009;50.656;7.188;2024-03-23T07:39:22;12.60;92.70
9941;DHT22;5009;50.656;7.188;2024-03-23T07:41:48;12.60;92.60
9941;DHT22;5009;50.656;7.188;2024-03-23T07:44:13;12.50;93.10
9941;DHT22;5009;50.656;7.188;2024-03-23T07:46:39;12.70;93.30
9941;DHT22;5009;50.656;7.188;2024-03-23T07:49:05;12.80;93.10
9941;DHT22;5009;50.656;7.188;2024-03-23T07:51:30;12.90;92.70
9941;DHT22;5009;50.656;7.188;2024-03-23T07:53:56;13.20;92.60
9941;DHT22;5009;50.656;7.188;2024-03-23T07:56:21;13.50;92.50
9941;DHT22;5009;50.656;7.188;2024-03-23T07:58:48;13.70;91.40
9941;DHT22;5009;50.656;7.188;2024-03-23T08:01:15;13.80;90.60
9941;DHT22;5009;50.656;7.188;2024-03-23T08:03:43;13.90;91.00
9941;DHT22;5009;50.656;7.188;2024-03-23T08:08:37;14.30;90.80
9941;DHT22;5009;50.656;7.188;2024-03-23T08:11:03;14.50;90.30
9941;DHT22;5009;50.656;7.188;2024-03-23T08:13:32;14.60;89.40
9941;DHT22;5009;50.656;7.188;2024-03-23T08:15:59;14.60;88.60
9941;DHT22;5009;50.656;7.188;2024-03-23T08:18:25;14.80;87.20
9941;DHT22;5009;50.656;7.188;2024-03-23T08:23:27;15.30;86.70
9941;DHT22;5009;50.656;7.188;2024-03-23T08:25:57;15.30;84.80
9941;DHT22;5009;50.656;7.188;2024-03-23T08:28:22;14.40;82.40
9941;DHT22;5009;50.656;7.188;2024-03-23T08:30:48;13.70;81.20
9941;DHT22;5009;50.656;7.188;2024-03-23T08:33:15;13.10;82.50
9941;DHT22;5009;50.656;7.188;2024-03-23T08:35:41;12.40;83.00
9941;DHT22;5009;50.656;7.188;2024-03-23T08:38:06;12.10;84.00
9941;DHT22;5009;50.656;7.188;2024-03-23T08:40:32;11.90;84.70
9941;DHT22;5009;50.656;7.188;2024-03-23T08:42:58;11.80;85.70
9941;DHT22;5009;50.656;7.188;2024-03-23T08:45:24;11.70;86.40
9941;DHT22;5009;50.656;7.188;2024-03-23T08:47:50;11.60;87.10
9941;DHT22;5009;50.656;7.188;2024-03-23T08:50:16;11.40;87.90
9941;DHT22;5009;50.656;7.188;2024-03-23T08:52:42;11.80;89.80
9941;DHT22;5009;50.656;7.188;2024-03-23T08:55:08;12.20;89.80
9941;DHT22;5009;50.656;7.188;2024-03-23T08:57:35;12.70;88.00
9941;DHT22;5009;50.656;7.188;2024-03-23T09:00:00;13.10;86.60
9941;DHT22;5009;50.656;7.188;2024-03-23T09:02:26;13.50;85.70
9941;DHT22;5009;50.656;7.188;2024-03-23T09:04:51;13.80;84.80
9941;DHT22;5009;50.656;7.188;2024-03-23T09:07:17;14.00;83.80
9941;DHT22;5009;50.656;7.188;2024-03-23T09:09:42;14.20;82.90
9941;DHT22;5009;50.656;7.188;2024-03-23T09:12:08;14.50;82.90
9941;DHT22;5009;50.656;7.188;2024-03-23T09:14:34;14.80;83.50
9941;DHT22;5009;50.656;7.188;2024-03-23T09:16:59;15.00;81.70
9941;DHT22;5009;50.656;7.188;2024-03-23T09:19:30;15.30;81.10
9941;DHT22;5009;50.656;7.188;2024-03-23T09:21:56;15.30;81.10
9941;DHT22;5009;50.656;7.188;2024-03-23T09:24:21;15.60;80.90
9941;DHT22;5009;50.656;7.188;2024-03-23T09:26:47;15.60;80.30
9941;DHT22;5009;50.656;7.188;2024-03-23T09:29:13;15.50;80.50
9941;DHT22;5009;50.656;7.188;2024-03-23T09:31:39;15.40;80.00
9941;DHT22;5009;50.656;7.188;2024-03-23T09:34:06;15.40;79.20
9941;DHT22;5009;50.656;7.188;2024-03-23T09:36:31;14.90;77.00
9941;DHT22;5009;50.656;7.188;2024-03-23T09:38:57;14.40;76.00
9941;DHT22;5009;50.656;7.188;2024-03-23T09:41:22;13.90;76.40
9941;DHT22;5009;50.656;7.188;2024-03-23T09:43:48;13.40;76.60
9941;DHT22;5009;50.656;7.188;2024-03-23T09:46:15;12.90;77.80
9941;DHT22;5009;50.656;7.188;2024-03-23T09:48:41;12.60;80.20
9941;DHT22;5009;50.656;7.188;2024-03-23T09:51:09;12.40;80.70
9941;DHT22;5009;50.656;7.188;2024-03-23T09:53:34;12.30;82.30
9941;DHT22;5009;50.656;7.188;2024-03-23T09:56:00;12.50;83.60
9941;DHT22;5009;50.656;7.188;2024-03-23T09:58:26;12.80;84.70
9941;DHT22;5009;50.656;7.188;2024-03-23T10:00:51;12.90;83.40
9941;DHT22;5009;50.656;7.188;2024-03-23T10:03:17;13.10;83.50
9941;DHT22;5009;50.656;7.188;2024-03-23T10:05:43;13.20;83.90
9941;DHT22;5009;50.656;7.188;2024-03-23T10:10:44;13.30;83.60
9941;DHT22;5009;50.656;7.188;2024-03-23T10:13:10;13.50;83.60
9941;DHT22;5009;50.656;7.188;2024-03-23T10:15:38;13.40;82.70
9941;DHT22;5009;50.656;7.188;2024-03-23T10:20:41;13.30;79.30
9941;DHT22;5009;50.656;7.188;2024-03-23T10:23:16;13.30;79.80
9941;DHT22;5009;50.656;7.188;2024-03-23T10:25:41;13.40;79.00
9941;DHT22;5009;50.656;7.188;2024-03-23T10:28:07;13.50;78.50
9941;DHT22;5009;50.656;7.188;2024-03-23T10:30:32;13.30;76.30
9941;DHT22;5009;50.656;7.188;2024-03-23T10:33:07;13.30;77.10
9941;DHT22;5009;50.656;7.188;2024-03-23T10:35:33;13.20;78.10
9941;DHT22;5009;50.656;7.188;2024-03-23T10:37:59;13.20;78.10
9941;DHT22;5009;50.656;7.188;2024-03-23T10:40:25;13.00;80.10
9941;DHT22;5009;50.656;7.188;2024-03-23T10:42:52;12.50;82.40
9941;DHT22;5009;50.656;7.188;2024-03-23T10:45:19;11.90;83.80
9941;DHT22;5009;50.656;7.188;2024-03-23T10:47:44;11.50;85.20
9941;DHT22;5009;50.656;7.188;2024-03-23T10:50:10;11.00;86.30
9941;DHT22;5009;50.656;7.188;2024-03-23T10:52:36;10.70;87.40
9941;DHT22;5009;50.656;7.188;2024-03-23T10:55:06;10.10;89.00
9941;DHT22;5009;50.656;7.188;2024-03-23T10:57:40;9.80;91.90
9941;DHT22;5009;50.656;7.188;2024-03-23T11:00:07;9.60;92.30
9941;DHT22;5009;50.656;7.188;2024-03-23T11:02:33;9.40;93.10
9941;DHT22;5009;50.656;7.188;2024-03-23T11:04:59;9.30;93.50
9941;DHT22;5009;50.656;7.188;2024-03-23T11:07:28;9.10;93.60
9941;DHT22;5009;50.656;7.188;2024-03-23T11:09:54;9.20;93.50
9941;DHT22;5009;50.656;7.188;2024-03-23T11:15:11;9.70;95.00
9941;DHT22;5009;50.656;7.188;2024-03-23T11:17:37;10.00;95.60
9941;DHT22;5009;50.656;7.188;2024-03-23T11:20:06;10.30;95.00
9941;DHT22;5009;50.656;7.188;2024-03-23T11:25:03;10.70;94.50
9941;DHT22;5009;50.656;7.188;2024-03-23T11:27:29;10.80;93.90
9941;DHT22;5009;50.656;7.188;2024-03-23T11:29:54;11.00;93.50
9941;DHT22;5009;50.656;7.188;2024-03-23T11:32:21;11.00;93.50
9941;DHT22;5009;50.656;7.188;2024-03-23T11:34:46;10.90;93.60
9941;DHT22;5009;50.656;7.188;2024-03-23T11:37:14;10.80;93.40
9941;DHT22;5009;50.656;7.188;2024-03-23T11:39:39;10.70;92.90
9941;DHT22;5009;50.656;7.188;2024-03-23T11:42:05;10.60;93.10
9941;DHT22;5009;50.656;7.188;2024-03-23T11:44:31;10.70;94.50
9941;DHT22;5009;50.656;7.188;2024-03-23T11:47:08;10.70;95.60
9941;DHT22;5009;50.656;7.188;2024-03-23T11:49:34;10.80;94.90
9941;DHT22;5009;50.656;7.188;2024-03-23T11:52:06;11.00;94.80
9941;DHT22;5009;50.656;7.188;2024-03-23T11:54:31;11.20;94.50
9941;DHT22;5009;50.656;7.188;2024-03-23T11:56:58;11.50;93.70
9941;DHT22;5009;50.656;7.188;2024-03-23T11:59:50;11.60;93.10
9941;DHT22;5009;50.656;7.188;2024-03-23T12:02:18;11.70;92.60
9941;DHT22;5009;50.656;7.188;2024-03-23T12:04:44;11.70;92.30
9941;DHT22;5009;50.656;7.188;2024-03-23T12:07:16;11.80;92.70
9941;DHT22;5009;50.656;7.188;2024-03-23T12:10:04;11.60;91.90
9941;DHT22;5009;50.656;7.188;2024-03-23T12:12:31;11.40;92.00
9941;DHT22;5009;50.656;7.188;2024-03-23T12:15:04;11.30;91.20
9941;DHT22;5009;50.656;7.188;2024-03-23T12:17:31;11.30;91.10
9941;DHT22;5009;50.656;7.188;2024-03-23T12:19:57;11.30;91.20
9941;DHT22;5009;50.656;7.188;2024-03-23T12:22:23;11.30;91.20
9941;DHT22;5009;50.656;7.188;2024-03-23T12:24:49;11.30;91.10
9941;DHT22;5009;50.656;7.188;2024-03-23T12:27:15;11.50;91.10
9941;DHT22;5009;50.656;7.188;2024-03-23T12:29:41;11.70;91.10
9941;DHT22;5009;50.656;7.188;2024-03-23T12:32:09;11.80;90.90
9941;DHT22;5009;50.656;7.188;2024-03-23T12:34:34;11.70;90.80
9941;DHT22;5009;50.656;7.188;2024-03-23T12:37:00;11.70;90.60
9941;DHT22;5009;50.656;7.188;2024-03-23T12:39:27;11.70;90.00
9941;DHT22;5009;50.656;7.188;2024-03-23T12:41:52;11.60;90.00
9941;DHT22;5009;50.656;7.188;2024-03-23T12:44:18;11.70;88.40
9941;DHT22;5009;50.656;7.188;2024-03-23T12:46:44;11.70;88.80
9941;DHT22;5009;50.656;7.188;2024-03-23T12:49:10;11.80;89.30
9941;DHT22;5009;50.656;7.188;2024-03-23T12:51:35;11.70;85.90
9941;DHT22;5009;50.656;7.188;2024-03-23T12:54:01;11.80;87.30
9941;DHT22;5009;50.656;7.188;2024-03-23T12:56:27;11.70;85.50
9941;DHT22;5009;50.656;7.188;2024-03-23T12:58:56;11.70;86.70
9941;DHT22;5009;50.656;7.188;2024-03-23T13:01:26;11.60;84.80
9941;DHT22;5009;50.656;7.188;2024-03-23T13:03:51;11.70;84.40
9941;DHT22;5009;50.656;7.188;2024-03-23T13:06:18;11.60;83.10
9941;DHT22;5009;50.656;7.188;2024-03-23T13:08:47;11.60;82.20
9941;DHT22;5009;50.656;7.188;2024-03-23T13:11:15;11.60;82.30
9941;DHT22;5009;50.656;7.188;2024-03-23T13:13:41;11.60;83.90
9941;DHT22;5009;50.656;7.188;2024-03-23T13:16:07;11.60;83.80
9941;DHT22;5009;50.656;7.188;2024-03-23T13:18:33;11.40;83.10
9941;DHT22;5009;50.656;7.188;2024-03-23T13:20:59;11.30;83.10
9941;DHT22;5009;50.656;7.188;2024-03-23T13:23:24;10.90;83.60
9941;DHT22;5009;50.656;7.188;2024-03-23T13:25:51;10.60;83.30
9941;DHT22;5009;50.656;7.188;2024-03-23T13:28:18;10.50;84.00
9941;DHT22;5009;50.656;7.188;2024-03-23T13:33:16;10.20;84.10
9941;DHT22;5009;50.656;7.188;2024-03-23T13:35:52;10.30;84.80
9941;DHT22;5009;50.656;7.188;2024-03-23T13:38:17;10.30;84.10
9941;DHT22;5009;50.656;7.188;2024-03-23T13:40:53;10.30;84.10
9941;DHT22;5009;50.656;7.188;2024-03-23T13:43:18;10.20;83.10
9941;DHT22;5009;50.656;7.188;2024-03-23T13:45:45;10.10;83.10
9941;DHT22;5009;50.656;7.188;2024-03-23T13:48:10;10.20;83.50
9941;DHT22;5009;50.656;7.188;2024-03-23T13:50:36;10.30;84.10
9941;DHT22;5009;50.656;7.188;2024-03-23T13:53:01;10.40;84.20
9941;DHT22;5009;50.656;7.188;2024-03-23T13:55:27;10.40;83.70
9941;DHT22;5009;50.656;7.188;2024-03-23T13:57:53;10.50;83.50
9941;DHT22;5009;50.656;7.188;2024-03-23T14:00:18;10.70;83.30
9941;DHT22;5009;50.656;7.188;2024-03-23T14:02:44;10.80;82.80
9941;DHT22;5009;50.656;7.188;2024-03-23T14:05:10;10.90;81.60
9941;DHT22;5009;50.656;7.188;2024-03-23T14:07:36;10.70;79.50
9941;DHT22;5009;50.656;7.188;2024-03-23T14:10:05;10.60;79.30
9941;DHT22;5009;50.656;7.188;2024-03-23T14:12:36;10.70;79.20
9941;DHT22;5009;50.656;7.188;2024-03-23T14:15:05;10.60;78.90
9941;DHT22;5009;50.656;7.188;2024-03-23T14:17:31;10.60;80.20
9941;DHT22;5009;50.656;7.188;2024-03-23T14:19:57;10.50;79.80
9941;DHT22;5009;50.656;7.188;2024-03-23T14:22:26;10.50;80.50
9941;DHT22;5009;50.656;7.188;2024-03-23T14:24:52;10.40;80.20
9941;DHT22;5009;50.656;7.188;2024-03-23T14:27:18;10.40;81.30
9941;DHT22;5009;50.656;7.188;2024-03-23T14:29:46;10.40;81.40
9941;DHT22;5009;50.656;7.188;2024-03-23T14:32:12;10.40;81.00
9941;DHT22;5009;50.656;7.188;2024-03-23T14:34:37;10.60;81.60
9941;DHT22;5009;50.656;7.188;2024-03-23T14:37:03;10.90;81.10
9941;DHT22;5009;50.656;7.188;2024-03-23T14:39:30;11.10;81.10
9941;DHT22;5009;50.656;7.188;2024-03-23T14:41:56;11.20;80.50
9941;DHT22;5009;50.656;7.188;2024-03-23T14:44:22;11.30;79.60
9941;DHT22;5009;50.656;7.188;2024-03-23T14:46:48;11.50;79.10
9941;DHT22;5009;50.656;7.188;2024-03-23T14:49:15;11.50;80.10
9941;DHT22;5009;50.656;7.188;2024-03-23T14:51:43;11.50;80.10
9941;DHT22;5009;50.656;7.188;2024-03-23T14:54:09;11.40;80.20
9941;DHT22;5009;50.656;7.188;2024-03-23T14:56:35;11.20;81.10
9941;DHT22;5009;50.656;7.188;2024-03-23T14:59:01;11.10;81.40
9941;DHT22;5009;50.656;7.188;2024-03-23T15:01:26;10.80;80.90
9941;DHT22;5009;50.656;7.188;2024-03-23T15:03:52;10.50;83.60
9941;DHT22;5009;50.656;7.188;2024-03-23T15:06:18;10.40;85.80
9941;DHT22;5009;50.656;7.188;2024-03-23T15:08:44;10.30;87.40
9941;DHT22;5009;50.656;7.188;2024-03-23T15:11:10;10.30;89.30
9941;DHT22;5009;50.656;7.188;2024-03-23T15:13:36;10.20;90.30
9941;DHT22;5009;50.656;7.188;2024-03-23T15:16:03;10.20;90.80
9941;DHT22;5009;50.656;7.188;2024-03-23T15:18:32;10.10;90.70
9941;DHT22;5009;50.656;7.188;2024-03-23T15:21:04;10.10;90.50
9941;DHT22;5009;50.656;7.188;2024-03-23T15:23:35;10.00;90.40
9941;DHT22;5009;50.656;7.188;2024-03-23T15:26:02;10.10;90.40
9941;DHT22;5009;50.656;7.188;2024-03-23T15:28:28;10.20;90.40
9941;DHT22;5009;50.656;7.188;2024-03-23T15:31:09;10.30;90.50
9941;DHT22;5009;50.656;7.188;2024-03-23T15:33:35;10.30;90.60
9941;DHT22;5009;50.656;7.188;2024-03-23T15:36:04;10.30;90.60
9941;DHT22;5009;50.656;7.188;2024-03-23T15:38:33;10.30;90.00
9941;DHT22;5009;50.656;7.188;2024-03-23T15:40:59;10.40;90.00
9941;DHT22;5009;50.656;7.188;2024-03-23T15:43:25;10.30;88.20
9941;DHT22;5009;50.656;7.188;2024-03-23T15:46:02;10.20;87.10
9941;DHT22;5009;50.656;7.188;2024-03-23T15:48:29;10.30;86.50
9941;DHT22;5009;50.656;7.188;2024-03-23T15:50:56;10.30;85.70
9941;DHT22;5009;50.656;7.188;2024-03-23T15:53:23;10.30;86.10
9941;DHT22;5009;50.656;7.188;2024-03-23T15:55:55;10.40;85.60
9941;DHT22;5009;50.656;7.188;2024-03-23T15:58:21;10.30;85.70
9941;DHT22;5009;50.656;7.188;2024-03-23T16:01:00;10.40;85.80
9941;DHT22;5009;50.656;7.188;2024-03-23T16:03:26;10.40;85.80
9941;DHT22;5009;50.656;7.188;2024-03-23T16:05:53;10.30;84.90
9941;DHT22;5009;50.656;7.188;2024-03-23T16:08:19;10.30;84.30
9941;DHT22;5009;50.656;7.188;2024-03-23T16:10:45;10.30;84.50
9941;DHT22;5009;50.656;7.188;2024-03-23T16:13:11;10.30;84.10
9941;DHT22;5009;50.656;7.188;2024-03-23T16:15:36;10.30;84.50
9941;DHT22;5009;50.656;7.188;2024-03-23T16:18:02;10.30;85.00
9941;DHT22;5009;50.656;7.188;2024-03-23T16:20:28;10.30;84.60
9941;DHT22;5009;50.656;7.188;2024-03-23T16:22:54;10.20;83.90
9941;DHT22;5009;50.656;7.188;2024-03-23T16:25:19;10.30;84.30
9941;DHT22;5009;50.656;7.188;2024-03-23T16:27:45;10.30;84.80
9941;DHT22;5009;50.656;7.188;2024-03-23T16:30:11;10.30;85.00
9941;DHT22;5009;50.656;7.188;2024-03-23T16:32:37;10.20;85.00
9941;DHT22;5009;50.656;7.188;2024-03-23T16:35:04;10.10;84.80
9941;DHT22;5009;50.656;7.188;2024-03-23T16:37:30;10.00;85.10
9941;DHT22;5009;50.656;7.188;2024-03-23T16:39:55;10.00;85.30
9941;DHT22;5009;50.656;7.188;2024-03-23T16:42:21;9.90;87.40
9941;DHT22;5009;50.656;7.188;2024-03-23T16:44:47;9.80;87.80
9941;DHT22;5009;50.656;7.188;2024-03-23T16:47:12;9.60;89.50
9941;DHT22;5009;50.656;7.188;2024-03-23T16:49:38;9.60;90.30
9941;DHT22;5009;50.656;7.188;2024-03-23T16:52:03;9.50;90.30
9941;DHT22;5009;50.656;7.188;2024-03-23T16:54:30;9.40;90.60
9941;DHT22;5009;50.656;7.188;2024-03-23T16:56:55;9.30;91.40
9941;DHT22;5009;50.656;7.188;2024-03-23T16:59:21;9.20;92.10
9941;DHT22;5009;50.656;7.188;2024-03-23T17:01:46;9.00;93.20
9941;DHT22;5009;50.656;7.188;2024-03-23T17:04:12;8.80;94.20
9941;DHT22;5009;50.656;7.188;2024-03-23T17:06:38;8.60;94.50
9941;DHT22;5009;50.656;7.188;2024-03-23T17:09:07;8.50;95.20
9941;DHT22;5009;50.656;7.188;2024-03-23T17:11:35;8.50;95.60
9941;DHT22;5009;50.656;7.188;2024-03-23T17:14:00;8.40;96.30
9941;DHT22;5009;50.656;7.188;2024-03-23T17:16:26;8.30;95.70
9941;DHT22;5009;50.656;7.188;2024-03-23T17:18:56;8.20;96.20
9941;DHT22;5009;50.656;7.188;2024-03-23T17:21:21;8.20;97.00
9941;DHT22;5009;50.656;7.188;2024-03-23T17:23:48;8.20;96.90
9941;DHT22;5009;50.656;7.188;2024-03-23T17:26:13;8.20;96.80
9941;DHT22;5009;50.656;7.188;2024-03-23T17:28:40;8.20;97.10
9941;DHT22;5009;50.656;7.188;2024-03-23T17:31:14;8.20;97.40
9941;DHT22;5009;50.656;7.188;2024-03-23T17:33:39;8.20;97.10
9941;DHT22;5009;50.656;7.188;2024-03-23T17:36:05;8.10;97.60
9941;DHT22;5009;50.656;7.188;2024-03-23T17:38:31;8.00;97.70
9941;DHT22;5009;50.656;7.188;2024-03-23T17:40:57;7.80;97.80
9941;DHT22;5009;50.656;7.188;2024-03-23T17:43:22;7.60;98.70
9941;DHT22;5009;50.656;7.188;2024-03-23T17:45:48;7.50;99.60
9941;DHT22;5009;50.656;7.188;2024-03-23T17:48:15;7.30;99.90
9941;DHT22;5009;50.656;7.188;2024-03-23T17:50:40;7.10;99.90
9941;DHT22;5009;50.656;7.188;2024-03-23T17:53:06;7.10;99.90
9941;DHT22;5009;50.656;7.188;2024-03-23T17:55:31;7.00;99.90
9941;DHT22;5009;50.656;7.188;2024-03-23T17:57:57;7.00;99.90
9941;DHT22;5009;50.656;7.188;2024-03-23T18:00:24;6.80;99.90
9941;DHT22;5009;50.656;7.188;2024-03-23T18:02:50;6.70;99.90
9941;DHT22;5009;50.656;7.188;2024-03-23T18:05:16;6.60;99.90
9941;DHT22;5009;50.656;7.188;2024-03-23T18:07:44;6.50;99.90
9941;DHT22;5009;50.656;7.188;2024-03-23T18:10:10;6.60;99.90
9941;DHT22;5009;50.656;7.188;2024-03-23T18:12:35;6.60;99.90
9941;DHT22;5009;50.656;7.188;2024-03-23T18:15:02;6.60;99.90
9941;DHT22;5009;50.656;7.188;2024-03-23T18:17:30;6.50;99.90
9941;DHT22;5009;50.656;7.188;2024-03-23T18:19:55;6.50;99.90
9941;DHT22;5009;50.656;7.188;2024-03-23T18:22:21;6.40;99.90
9941;DHT22;5009;50.656;7.188;2024-03-23T18:24:46;6.30;99.90
9941;DHT22;5009;50.656;7.188;2024-03-23T18:27:12;6.30;99.90
9941;DHT22;5009;50.656;7.188;2024-03-23T18:29:41;6.10;99.90
9941;DHT22;5009;50.656;7.188;2024-03-23T18:32:07;6.00;99.90
9941;DHT22;5009;50.656;7.188;2024-03-23T18:34:32;6.10;99.90
9941;DHT22;5009;50.656;7.188;2024-03-23T18:36:58;6.10;99.90
9941;DHT22;5009;50.656;7.188;2024-03-23T18:39:23;6.00;99.90
9941;DHT22;5009;50.656;7.188;2024-03-23T18:41:49;6.10;99.90
9941;DHT22;5009;50.656;7.188;2024-03-23T18:44:15;6.10;99.90
9941;DHT22;5009;50.656;7.188;2024-03-23T18:46:40;6.10;99.90
9941;DHT22;5009;50.656;7.188;2024-03-23T18:49:06;6.20;99.90
9941;DHT22;5009;50.656;7.188;2024-03-23T18:51:31;6.20;99.90
9941;DHT22;5009;50.656;7.188;2024-03-23T18:53:57;6.20;99.90
9941;DHT22;5009;50.656;7.188;2024-03-23T18:56:26;6.30;99.90
9941;DHT22;5009;50.656;7.188;2024-03-23T18:58:52;6.40;99.90
9941;DHT22;5009;50.656;7.188;2024-03-23T19:01:19;6.40;99.90
9941;DHT22;5009;50.656;7.188;2024-03-23T19:03:45;6.40;99.90
9941;DHT22;5009;50.656;7.188;2024-03-23T19:06:11;6.40;99.90
9941;DHT22;5009;50.656;7.188;2024-03-23T19:08:36;6.40;99.90
9941;DHT22;5009;50.656;7.188;2024-03-23T19:11:02;6.40;99.90
9941;DHT22;5009;50.656;7.188;2024-03-23T19:13:29;6.40;99.90
9941;DHT22;5009;50.656;7.188;2024-03-23T19:15:55;6.50;99.90
9941;DHT22;5009;50.656;7.188;2024-03-23T19:18:24;6.50;99.90
9941;DHT22;5009;50.656;7.188;2024-03-23T19:20:53;6.50;99.90
9941;DHT22;5009;50.656;7.188;2024-03-23T19:23:20;6.50;99.90
9941;DHT22;5009;50.656;7.188;2024-03-23T19:26:01;6.40;99.90
9941;DHT22;5009;50.656;7.188;2024-03-23T19:28:27;6.40;99.90
9941;DHT22;5009;50.656;7.188;2024-03-23T19:30:53;6.30;99.90
9941;DHT22;5009;50.656;7.188;2024-03-23T19:33:19;6.30;99.90
9941;DHT22;5009;50.656;7.188;2024-03-23T19:35:45;6.30;99.90
9941;DHT22;5009;50.656;7.188;2024-03-23T19:38:14;6.30;99.90
9941;DHT22;5009;50.656;7.188;2024-03-23T19:40:40;6.30;99.90
9941;DHT22;5009;50.656;7.188;2024-03-23T19:43:05;6.30;99.90
9941;DHT22;5009;50.656;7.188;2024-03-23T19:45:33;6.40;99.90
9941;DHT22;5009;50.656;7.188;2024-03-23T19:48:00;6.40;99.90
9941;DHT22;5009;50.656;7.188;2024-03-23T19:50:25;6.40;99.90
9941;DHT22;5009;50.656;7.188;2024-03-23T19:52:51;6.30;99.90
9941;DHT22;5009;50.656;7.188;2024-03-23T19:55:17;6.20;99.90
9941;DHT22;5009;50.656;7.188;2024-03-23T19:57:45;6.10;99.90
9941;DHT22;5009;50.656;7.188;2024-03-23T20:00:11;5.90;99.90
9941;DHT22;5009;50.656;7.188;2024-03-23T20:02:37;5.90;99.90
9941;DHT22;5009;50.656;7.188;2024-03-23T20:05:03;5.90;99.90
9941;DHT22;5009;50.656;7.188;2024-03-23T20:07:29;5.90;99.90
9941;DHT22;5009;50.656;7.188;2024-03-23T20:09:54;5.90;99.90
9941;DHT22;5009;50.656;7.188;2024-03-23T20:12:20;5.90;99.90
9941;DHT22;5009;50.656;7.188;2024-03-23T20:14:45;5.90;99.90
9941;DHT22;5009;50.656;7.188;2024-03-23T20:17:11;5.90;99.90
9941;DHT22;5009;50.656;7.188;2024-03-23T20:19:37;5.90;99.90
9941;DHT22;5009;50.656;7.188;2024-03-23T20:22:03;5.90;99.90
9941;DHT22;5009;50.656;7.188;2024-03-23T20:24:29;6.00;99.90
9941;DHT22;5009;50.656;7.188;2024-03-23T20:26:55;5.90;99.90
9941;DHT22;5009;50.656;7.188;2024-03-23T20:29:21;5.90;99.90
9941;DHT22;5009;50.656;7.188;2024-03-23T20:31:47;6.00;99.90
9941;DHT22;5009;50.656;7.188;2024-03-23T20:34:13;6.10;99.90
9941;DHT22;5009;50.656;7.188;2024-03-23T20:36:39;6.20;99.90
9941;DHT22;5009;50.656;7.188;2024-03-23T20:39:04;6.20;99.90
9941;DHT22;5009;50.656;7.188;2024-03-23T20:41:30;6.20;99.90
9941;DHT22;5009;50.656;7.188;2024-03-23T20:43:56;6.20;99.90
9941;DHT22;5009;50.656;7.188;2024-03-23T20:46:21;6.30;99.90
9941;DHT22;5009;50.656;7.188;2024-03-23T20:48:47;6.30;99.90
9941;DHT22;5009;50.656;7.188;2024-03-23T20:51:15;6.20;99.90
9941;DHT22;5009;50.656;7.188;2024-03-23T20:53:41;6.20;99.90
9941;DHT22;5009;50.656;7.188;2024-03-23T20:56:07;6.30;99.90
9941;DHT22;5009;50.656;7.188;2024-03-23T20:58:35;6.30;99.90
9941;DHT22;5009;50.656;7.188;2024-03-23T21:01:04;6.40;99.90
9941;DHT22;5009;50.656;7.188;2024-03-23T21:03:30;6.40;99.90
9941;DHT22;5009;50.656;7.188;2024-03-23T21:05:56;6.40;99.90
9941;DHT22;5009;50.656;7.188;2024-03-23T21:08:22;6.40;99.90
9941;DHT22;5009;50.656;7.188;2024-03-23T21:10:52;6.40;99.90
9941;DHT22;5009;50.656;7.188;2024-03-23T21:13:18;6.30;99.90
9941;DHT22;5009;50.656;7.188;2024-03-23T21:15:48;6.30;99.90
9941;DHT22;5009;50.656;7.188;2024-03-23T21:18:14;6.10;99.90
9941;DHT22;5009;50.656;7.188;2024-03-23T21:20:40;6.00;99.90
9941;DHT22;5009;50.656;7.188;2024-03-23T21:23:05;6.00;99.90